createdAt,value
2018-03-11T00:00:45.692Z,92015.02
2018-03-11T00:01:34.736Z,92015.13
2018-03-11T00:02:23.783Z,92021.42
2018-03-11T00:03:12.847Z,92014.42
2018-03-11T00:04:01.909Z,92011.86
2018-03-11T00:04:50.950Z,92010.02
2018-03-11T00:05:40.001Z,92011.67
2018-03-11T00:06:29.060Z,92012.33
2018-03-11T00:07:18.153Z,92007.28
2018-03-11T00:08:07.194Z,92005.74
2018-03-11T00:08:56.227Z,92010.82
2018-03-11T00:09:45.279Z,92004.68
2018-03-11T00:10:34.312Z,92001.41
2018-03-11T00:11:23.346Z,92005.49
2018-03-11T00:12:12.383Z,92004.41
2018-03-11T00:13:01.800Z,91996.35
2018-03-11T00:13:50.840Z,91996.63
2018-03-11T00:14:40.536Z,91993.83
2018-03-11T00:15:29.552Z,91994.39
2018-03-11T00:16:18.593Z,91989.78
2018-03-11T00:17:07.668Z,91992.16
2018-03-11T00:17:56.704Z,91986.83
2018-03-11T00:18:45.810Z,91990.23
2018-03-11T00:19:34.869Z,91989.63
2018-03-11T00:20:23.924Z,91987.97
2018-03-11T00:21:12.974Z,91985.86
2018-03-11T00:22:02.048Z,91982.13
2018-03-11T00:22:51.110Z,91984.08
2018-03-11T00:23:40.222Z,91979.86
2018-03-11T00:24:29.267Z,91980.80
2018-03-11T00:25:18.310Z,91982.97
2018-03-11T00:26:07.360Z,91978.92
2018-03-11T00:26:56.406Z,91982.03
2018-03-11T00:27:45.505Z,91978.95
2018-03-11T00:28:34.560Z,91983.36
2018-03-11T00:29:23.612Z,91981.70
2018-03-11T00:30:12.950Z,91988.89
2018-03-11T00:31:02.010Z,91985.82
2018-03-11T00:31:51.053Z,91985.48
2018-03-11T00:32:40.171Z,91987.20
2018-03-11T00:33:29.219Z,91990.97
2018-03-11T00:34:18.269Z,91989.94
2018-03-11T00:35:07.313Z,91983.13
2018-03-11T00:35:56.838Z,91984.41
2018-03-11T00:36:45.896Z,91989.61
2018-03-11T00:37:34.985Z,91990.14
2018-03-11T00:38:24.038Z,91984.83
2018-03-11T00:39:13.088Z,91990.76
2018-03-11T00:40:02.142Z,91986.38
2018-03-11T00:40:51.390Z,91981.71
2018-03-11T00:41:40.482Z,91979.88
2018-03-11T00:42:29.533Z,91982.66
2018-03-11T00:43:18.598Z,91982.58
2018-03-11T00:44:07.660Z,91982.05
2018-03-11T00:44:56.733Z,91981.76
2018-03-11T00:45:45.785Z,91986.36
2018-03-11T00:46:34.850Z,91989.09
2018-03-11T00:47:23.996Z,91989.62
2018-03-11T00:48:13.033Z,91984.88
2018-03-11T00:49:02.130Z,91985.21
2018-03-11T00:49:51.185Z,91979.34
2018-03-11T00:50:40.302Z,91985.11
2018-03-11T00:51:29.347Z,91980.41
2018-03-11T00:52:18.392Z,91975.68
2018-03-11T00:53:07.808Z,91977.77
2018-03-11T00:53:56.851Z,91974.05
2018-03-11T00:54:45.883Z,91974.62
2018-03-11T00:55:34.934Z,91978.30
2018-03-11T00:56:23.976Z,91975.35
2018-03-11T00:57:13.038Z,91981.77
2018-03-11T00:58:02.129Z,91976.30
2018-03-11T00:58:51.177Z,91979.61
2018-03-11T00:59:40.228Z,91979.59
2018-03-11T01:00:29.264Z,91982.13
2018-03-11T01:01:18.545Z,91984.52
2018-03-11T01:02:07.592Z,91985.13
2018-03-11T01:02:56.648Z,91987.84
2018-03-11T01:03:46.054Z,91989.63
2018-03-11T01:04:35.100Z,91992.48
2018-03-11T01:05:24.154Z,91999.98
2018-03-11T01:06:13.255Z,91996.28
2018-03-11T01:07:02.291Z,91990.69
2018-03-11T01:07:51.359Z,91995.64
2018-03-11T01:08:40.414Z,91992.48
2018-03-11T01:09:29.955Z,91994.20
2018-03-11T01:10:18.997Z,91990.53
2018-03-11T01:11:08.043Z,91992.00
2018-03-11T01:11:57.084Z,91997.79
2018-03-11T01:12:46.167Z,92001.45
2018-03-11T01:13:35.226Z,91994.26
2018-03-11T01:14:24.266Z,92002.39
2018-03-11T01:15:13.320Z,92002.95
2018-03-11T01:16:02.372Z,91996.31
2018-03-11T01:16:51.415Z,92001.55
2018-03-11T01:17:40.469Z,92000.59
2018-03-11T01:18:29.568Z,91998.09
2018-03-11T01:19:18.609Z,91997.28
2018-03-11T01:20:07.660Z,92000.34
2018-03-11T01:20:56.691Z,91992.78
2018-03-11T01:21:45.784Z,91993.29
2018-03-11T01:22:34.924Z,91994.72
2018-03-11T01:23:23.974Z,91992.92
2018-03-11T01:24:13.019Z,91989.35
2018-03-11T01:25:02.070Z,91988.30
2018-03-11T01:25:51.117Z,91993.08
2018-03-11T01:26:40.151Z,91989.36
2018-03-11T01:27:29.205Z,91989.97
2018-03-11T01:28:18.324Z,91987.11
2018-03-11T01:29:07.383Z,91992.38
2018-03-11T01:29:56.739Z,91990.48
2018-03-11T01:30:45.784Z,91985.47
2018-03-11T01:31:34.833Z,91993.48
2018-03-11T01:32:23.869Z,91989.31
2018-03-11T01:33:12.920Z,91990.94
2018-03-11T01:34:02.394Z,91988.70
2018-03-11T01:34:51.452Z,91991.80
2018-03-11T01:35:40.500Z,91993.14
2018-03-11T01:36:29.559Z,91998.86
2018-03-11T01:37:18.614Z,91996.51
2018-03-11T01:38:07.653Z,91996.41
2018-03-11T01:38:56.794Z,91997.72
2018-03-11T01:39:45.886Z,91994.61
2018-03-11T01:40:34.928Z,91995.19
2018-03-11T01:41:23.970Z,91992.63
2018-03-11T01:42:13.008Z,91994.41
2018-03-11T01:43:02.052Z,91997.94
2018-03-11T01:43:51.097Z,91995.74
2018-03-11T01:44:40.189Z,91995.12
2018-03-11T01:45:29.238Z,91990.59
2018-03-11T01:46:18.287Z,91984.92
2018-03-11T01:47:07.326Z,91986.14
2018-03-11T01:47:56.377Z,91984.24
2018-03-11T01:48:45.420Z,91984.88
2018-03-11T01:49:34.466Z,91978.07
2018-03-11T01:50:23.557Z,91979.23
2018-03-11T01:51:12.595Z,91975.59
2018-03-11T01:52:01.635Z,91972.07
2018-03-11T01:53:02.513Z,91969.11
2018-03-11T01:53:51.958Z,91965.73
2018-03-11T01:54:41.005Z,91966.70
2018-03-11T01:55:30.149Z,91955.70
2018-03-11T01:56:19.388Z,91958.82
2018-03-11T01:57:08.434Z,91958.87
2018-03-11T01:57:57.492Z,91955.55
2018-03-11T01:58:46.531Z,91959.11
2018-03-11T01:59:35.580Z,91964.78
2018-03-11T02:00:24.642Z,91964.17
2018-03-11T02:01:14.215Z,91960.36
2018-03-11T02:02:03.287Z,91964.18
2018-03-11T02:02:52.339Z,91965.31
2018-03-11T02:03:41.440Z,91964.48
2018-03-11T02:04:30.565Z,91961.83
2018-03-11T02:05:19.614Z,91961.98
2018-03-11T02:06:08.662Z,91955.10
2018-03-11T02:06:57.713Z,91954.19
2018-03-11T02:07:46.780Z,91955.72
2018-03-11T02:08:35.832Z,91958.32
2018-03-11T02:09:24.879Z,91959.45
2018-03-11T02:10:13.962Z,91954.39
2018-03-11T02:11:03.144Z,91950.46
2018-03-11T02:11:52.420Z,91947.28
2018-03-11T02:12:41.453Z,91952.87
2018-03-11T02:13:30.487Z,91952.97
2018-03-11T02:14:19.549Z,91946.91
2018-03-11T02:15:08.589Z,91951.91
2018-03-11T02:15:57.709Z,91945.63
2018-03-11T02:16:46.756Z,91944.16
2018-03-11T02:17:35.828Z,91946.97
2018-03-11T02:18:25.201Z,91950.48
2018-03-11T02:19:14.248Z,91949.54
2018-03-11T02:20:03.396Z,91950.30
2018-03-11T02:20:52.427Z,91952.22
2018-03-11T02:21:41.485Z,91949.66
2018-03-11T02:22:30.542Z,91952.13
2018-03-11T02:23:19.721Z,91952.23
2018-03-11T02:24:08.756Z,91954.38
2018-03-11T02:24:57.805Z,91951.97
2018-03-11T02:25:46.863Z,91948.30
2018-03-11T02:26:35.908Z,91948.73
2018-03-11T02:27:24.954Z,91955.22
2018-03-11T02:28:13.990Z,91949.14
2018-03-11T02:29:03.096Z,91953.89
2018-03-11T02:29:52.147Z,91954.14
2018-03-11T02:30:41.206Z,91957.68
2018-03-11T02:31:30.402Z,91957.22
2018-03-11T02:32:19.440Z,91958.86
2018-03-11T02:33:08.519Z,91961.05
2018-03-11T02:33:57.605Z,91961.27
2018-03-11T02:34:46.656Z,91964.27
2018-03-11T02:35:36.205Z,91969.48
2018-03-11T02:36:25.258Z,91969.51
2018-03-11T02:37:14.308Z,91969.05
2018-03-11T02:38:03.355Z,91976.34
2018-03-11T02:38:52.407Z,91971.75
2018-03-11T02:39:41.555Z,91979.19
2018-03-11T02:40:30.592Z,91980.25
2018-03-11T02:41:19.650Z,91974.81
2018-03-11T02:42:08.690Z,91980.35
2018-03-11T02:42:57.736Z,91981.77
2018-03-11T02:43:46.780Z,91978.68
2018-03-11T02:44:35.830Z,91978.64
2018-03-11T02:45:24.938Z,91979.06
2018-03-11T02:46:13.980Z,91983.33
2018-03-11T02:47:03.028Z,91979.20
2018-03-11T02:47:52.085Z,91977.56
2018-03-11T02:48:41.138Z,91973.09
2018-03-11T02:49:30.169Z,91971.98
2018-03-11T02:50:19.239Z,91970.98
2018-03-11T02:51:08.685Z,91976.13
2018-03-11T02:51:57.753Z,91974.55
2018-03-11T02:52:46.801Z,91978.42
2018-03-11T02:53:35.841Z,91972.21
2018-03-11T02:54:24.882Z,91971.85
2018-03-11T02:55:13.927Z,91971.20
2018-03-11T02:56:03.112Z,91965.66
2018-03-11T02:56:52.177Z,91967.19
2018-03-11T02:57:41.234Z,91967.30
2018-03-11T02:58:30.274Z,91959.84
2018-03-11T02:59:19.324Z,91968.29
2018-03-11T03:00:08.379Z,91964.18
2018-03-11T03:00:57.435Z,91965.55
2018-03-11T03:01:46.537Z,91960.51
2018-03-11T03:02:35.594Z,91965.14
2018-03-11T03:03:24.658Z,91960.71
2018-03-11T03:04:13.703Z,91960.77
2018-03-11T03:05:02.754Z,91952.58
2018-03-11T03:05:51.795Z,91955.56
2018-03-11T03:06:40.865Z,91961.02
2018-03-11T03:07:30.367Z,91959.43
2018-03-11T03:08:19.404Z,91963.55
2018-03-11T03:09:08.444Z,91958.25
2018-03-11T03:09:57.488Z,91952.55
2018-03-11T03:10:46.519Z,91952.09
2018-03-11T03:11:35.565Z,91946.84
2018-03-11T03:12:24.653Z,91955.45
2018-03-11T03:13:14.496Z,91946.11
2018-03-11T03:14:03.555Z,91947.05
2018-03-11T03:14:52.733Z,91947.59
2018-03-11T03:15:41.793Z,91950.95
2018-03-11T03:16:30.830Z,91945.98
2018-03-11T03:17:19.920Z,91945.55
2018-03-11T03:18:08.962Z,91938.88
2018-03-11T03:18:57.996Z,91937.51
2018-03-11T03:19:47.046Z,91940.06
2018-03-11T03:20:36.083Z,91938.55
2018-03-11T03:21:25.139Z,91936.80
2018-03-11T03:22:14.566Z,91932.75
2018-03-11T03:23:03.630Z,91939.83
2018-03-11T03:23:52.703Z,91942.59
2018-03-11T03:24:41.751Z,91941.02
2018-03-11T03:25:30.792Z,91948.84
2018-03-11T03:26:19.842Z,91953.38
2018-03-11T03:27:08.895Z,91955.28
2018-03-11T03:27:58.509Z,91958.96
2018-03-11T03:28:47.784Z,91956.92
2018-03-11T03:29:36.817Z,91950.20
2018-03-11T03:30:25.909Z,91956.61
2018-03-11T03:31:14.953Z,91960.69
2018-03-11T03:32:03.998Z,91956.04
2018-03-11T03:32:53.080Z,91958.19
2018-03-11T03:33:42.126Z,91960.25
2018-03-11T03:34:31.164Z,91960.14
2018-03-11T03:35:20.216Z,91965.22
2018-03-11T03:36:09.272Z,91965.84
2018-03-11T03:36:58.303Z,91965.73
2018-03-11T03:37:47.343Z,91972.70
2018-03-11T03:38:36.516Z,91967.09
2018-03-11T03:39:25.575Z,91972.35
2018-03-11T03:40:14.617Z,91974.59
2018-03-11T03:41:03.654Z,91974.87
2018-03-11T03:41:52.691Z,91975.41
2018-03-11T03:42:41.755Z,91976.36
2018-03-11T03:43:30.806Z,91967.03
2018-03-11T03:44:20.144Z,91972.44
2018-03-11T03:45:09.183Z,91971.58
2018-03-11T03:45:58.264Z,91968.52
2018-03-11T03:46:47.313Z,91970.05
2018-03-11T03:47:36.355Z,91977.04
2018-03-11T03:48:25.405Z,91975.72
2018-03-11T03:49:14.449Z,91970.92
2018-03-11T03:50:03.521Z,91968.58
2018-03-11T03:50:52.576Z,91969.44
2018-03-11T03:51:41.664Z,91965.01
2018-03-11T03:52:30.711Z,91963.83
2018-03-11T03:53:19.754Z,91962.72
2018-03-11T03:54:08.797Z,91960.43
2018-03-11T03:54:57.890Z,91957.84
2018-03-11T03:55:46.938Z,91960.69
2018-03-11T03:56:35.980Z,91959.72
2018-03-11T03:57:25.086Z,91955.42
2018-03-11T03:58:14.122Z,91954.88
2018-03-11T03:59:03.360Z,91954.05
2018-03-11T03:59:52.408Z,91963.23
2018-03-11T04:00:41.481Z,91958.73
2018-03-11T04:01:30.534Z,91956.25
2018-03-11T04:02:19.883Z,91960.52
2018-03-11T04:03:09.829Z,91966.86
2018-03-11T04:03:59.693Z,91967.20
2018-03-11T04:04:48.745Z,91965.98
2018-03-11T04:05:37.784Z,91969.87
2018-03-11T04:06:26.856Z,91966.89
2018-03-11T04:07:16.292Z,91967.67
2018-03-11T04:08:05.805Z,91969.04
2018-03-11T04:08:54.876Z,91962.37
2018-03-11T04:09:43.920Z,91962.57
2018-03-11T04:10:32.959Z,91956.51
2018-03-11T04:11:22.043Z,91957.52
2018-03-11T04:12:11.079Z,91965.78
2018-03-11T04:13:00.119Z,91970.41
2018-03-11T04:13:49.245Z,91965.63
2018-03-11T04:14:38.284Z,91959.09
2018-03-11T04:15:27.395Z,91957.00
2018-03-11T04:16:16.440Z,91957.97
2018-03-11T04:17:05.490Z,91960.16
2018-03-11T04:17:54.550Z,91960.91
2018-03-11T04:18:43.587Z,91958.22
2018-03-11T04:19:32.774Z,91964.19
2018-03-11T04:20:23.176Z,91958.13
2018-03-11T04:21:13.912Z,91967.51
2018-03-11T04:22:02.965Z,91965.78
2018-03-11T04:22:51.999Z,91966.80
2018-03-11T04:23:41.039Z,91969.34
2018-03-11T04:24:30.073Z,91969.43
2018-03-11T04:25:19.177Z,91961.33
2018-03-11T04:26:08.213Z,91966.28
2018-03-11T04:26:57.261Z,91962.98
2018-03-11T04:27:47.165Z,91966.20
2018-03-11T04:28:36.237Z,91968.41
2018-03-11T04:29:25.279Z,91966.16
2018-03-11T04:30:14.417Z,91969.23
2018-03-11T04:31:03.997Z,91969.19
2018-03-11T04:31:53.101Z,91969.41
2018-03-11T04:32:42.136Z,91970.14
2018-03-11T04:33:31.189Z,91977.34
2018-03-11T04:34:20.310Z,91971.89
2018-03-11T04:35:10.047Z,91972.72
2018-03-11T04:35:59.205Z,91968.70
2018-03-11T04:36:51.819Z,91977.66
2018-03-11T04:37:41.445Z,91973.45
2018-03-11T04:38:30.501Z,91978.55
2018-03-11T04:39:19.540Z,91987.42
2018-03-11T04:40:08.600Z,91985.36
2018-03-11T04:40:57.645Z,91980.45
2018-03-11T04:41:46.678Z,91984.51
2018-03-11T04:42:35.737Z,91981.35
2018-03-11T04:43:24.831Z,91983.41
2018-03-11T04:44:13.883Z,91985.51
2018-03-11T04:45:02.926Z,91990.80
2018-03-11T04:45:52.030Z,91993.97
2018-03-11T04:46:41.077Z,91992.88
2018-03-11T04:47:30.116Z,91987.05
2018-03-11T04:48:19.170Z,91987.47
2018-03-11T04:49:08.664Z,91996.55
2018-03-11T04:49:57.736Z,91996.17
2018-03-11T04:50:46.783Z,91989.66
2018-03-11T04:51:35.831Z,91994.89
2018-03-11T04:52:24.975Z,91991.95
2018-03-11T04:53:14.018Z,91987.79
2018-03-11T04:54:03.051Z,91988.52
2018-03-11T04:54:52.822Z,91988.30
2018-03-11T04:55:42.007Z,91993.42
2018-03-11T04:56:31.057Z,91991.29
2018-03-11T04:57:20.194Z,91984.68
2018-03-11T04:58:09.264Z,91988.39
2018-03-11T04:58:58.317Z,91985.77
2018-03-11T04:59:47.372Z,91986.52
2018-03-11T05:00:36.422Z,91986.20
2018-03-11T05:01:25.522Z,91984.52
2018-03-11T05:02:14.579Z,91983.33
2018-03-11T05:03:03.624Z,91978.75
2018-03-11T05:03:52.669Z,91982.36
2018-03-11T05:04:41.717Z,91978.50
2018-03-11T05:05:30.772Z,91979.69
2018-03-11T05:06:19.827Z,91982.12
2018-03-11T05:07:11.849Z,91985.70
2018-03-11T05:08:00.928Z,91980.50
2018-03-11T05:08:49.981Z,91984.20
2018-03-11T05:09:39.022Z,91982.94
2018-03-11T05:10:28.054Z,91984.30
2018-03-11T05:11:17.101Z,91984.52
2018-03-11T05:12:06.150Z,91986.34
2018-03-11T05:12:55.201Z,91981.39
2018-03-11T05:13:44.262Z,91982.83
2018-03-11T05:14:33.369Z,91993.14
2018-03-11T05:15:22.414Z,91992.38
2018-03-11T05:16:11.511Z,91986.89
2018-03-11T05:17:00.566Z,91990.81
2018-03-11T05:17:49.607Z,91987.95
2018-03-11T05:18:38.654Z,91989.81
2018-03-11T05:19:27.716Z,91993.60
2018-03-11T05:20:16.756Z,91997.74
2018-03-11T05:21:06.871Z,92001.02
2018-03-11T05:21:55.922Z,91997.56
2018-03-11T05:22:44.965Z,91999.00
2018-03-11T05:23:34.014Z,92002.08
2018-03-11T05:24:23.064Z,92001.45
2018-03-11T05:25:12.103Z,92000.59
2018-03-11T05:26:01.202Z,92006.20
2018-03-11T05:26:50.281Z,91999.73
2018-03-11T05:27:39.322Z,92001.87
2018-03-11T05:28:28.366Z,92004.11
2018-03-11T05:29:17.407Z,92009.22
2018-03-11T05:30:06.449Z,92004.77
2018-03-11T05:30:55.499Z,92009.22
2018-03-11T05:31:44.567Z,92010.64
2018-03-11T05:32:33.845Z,92013.34
2018-03-11T05:33:22.936Z,92009.38
2018-03-11T05:34:12.056Z,92005.80
2018-03-11T05:35:01.118Z,92006.36
2018-03-11T05:35:50.168Z,92006.67
2018-03-11T05:36:39.290Z,92006.27
2018-03-11T05:37:28.351Z,92012.34
2018-03-11T05:38:17.392Z,92012.73
2018-03-11T05:39:06.451Z,92015.39
2018-03-11T05:39:55.596Z,92013.86
2018-03-11T05:40:44.648Z,92014.64
2018-03-11T05:41:33.711Z,92011.11
2018-03-11T05:42:22.763Z,92020.70
2018-03-11T05:43:11.820Z,92014.33
2018-03-11T05:44:00.872Z,92011.56
2018-03-11T05:44:49.922Z,92014.23
2018-03-11T05:45:39.056Z,92013.35
2018-03-11T05:46:28.099Z,92014.23
2018-03-11T05:47:17.344Z,92011.77
2018-03-11T05:48:06.408Z,92012.52
2018-03-11T05:48:55.494Z,92017.60
2018-03-11T05:49:44.530Z,92018.64
2018-03-11T05:50:33.576Z,92018.89
2018-03-11T05:51:22.679Z,92017.33
2018-03-11T05:52:11.830Z,92014.80
2018-03-11T05:53:01.098Z,92015.72
2018-03-11T05:53:50.157Z,92016.53
2018-03-11T05:54:39.200Z,92010.86
2018-03-11T05:55:28.254Z,92017.86
2018-03-11T05:56:17.300Z,92020.34
2018-03-11T05:57:06.793Z,92016.73
2018-03-11T05:57:55.851Z,92021.53
2018-03-11T05:58:44.895Z,92022.73
2018-03-11T05:59:34.055Z,92022.19
2018-03-11T06:00:23.377Z,92019.88
2018-03-11T06:01:12.461Z,92018.13
2018-03-11T06:02:01.500Z,92021.97
2018-03-11T06:02:53.085Z,92016.29
2018-03-11T06:03:42.157Z,92016.61
2018-03-11T06:04:31.218Z,92016.32
2018-03-11T06:05:20.333Z,92022.60
2018-03-11T06:06:09.421Z,92015.20
2018-03-11T06:06:58.485Z,92016.16
2018-03-11T06:07:47.773Z,92020.27
2018-03-11T06:08:36.822Z,92014.34
2018-03-11T06:09:25.866Z,92020.50
2018-03-11T06:10:14.958Z,92014.61
2018-03-11T06:11:04.009Z,92016.34
2018-03-11T06:11:53.073Z,92018.64
2018-03-11T06:12:42.129Z,92019.31
2018-03-11T06:13:31.207Z,92013.25
2018-03-11T06:14:20.271Z,92014.00
2018-03-11T06:15:09.352Z,92012.33
2018-03-11T06:15:58.865Z,92014.49
2018-03-11T06:16:47.958Z,92021.52
2018-03-11T06:17:37.053Z,92020.33
2018-03-11T06:18:26.116Z,92025.82
2018-03-11T06:19:15.154Z,92016.41
2018-03-11T06:20:04.238Z,92021.80
2018-03-11T06:20:53.295Z,92023.03
2018-03-11T06:21:42.360Z,92020.56
2018-03-11T06:22:31.459Z,92020.86
2018-03-11T06:23:20.509Z,92019.05
2018-03-11T06:24:10.643Z,92018.61
2018-03-11T06:24:59.684Z,92023.63
2018-03-11T06:25:48.731Z,92026.69
2018-03-11T06:26:37.786Z,92025.41
2018-03-11T06:27:26.860Z,92023.69
2018-03-11T06:28:15.921Z,92024.16
2018-03-11T06:29:05.083Z,92027.33
2018-03-11T06:29:54.235Z,92025.69
2018-03-11T06:30:43.284Z,92023.41
2018-03-11T06:31:32.346Z,92026.78
2018-03-11T06:32:21.415Z,92023.88
2018-03-11T06:33:11.409Z,92020.41
2018-03-11T06:34:00.467Z,92028.06
2018-03-11T06:34:49.512Z,92021.75
2018-03-11T06:35:40.414Z,92024.51
2018-03-11T06:36:29.454Z,92019.31
2018-03-11T06:37:18.495Z,92022.72
2018-03-11T06:38:07.556Z,92024.50
2018-03-11T06:38:56.705Z,92026.12
2018-03-11T06:39:45.739Z,92021.74
2018-03-11T06:40:34.808Z,92024.43
2018-03-11T06:41:23.868Z,92026.50
2018-03-11T06:42:12.937Z,92025.00
2018-03-11T06:43:01.995Z,92029.24
2018-03-11T06:43:51.042Z,92027.84
2018-03-11T06:44:40.145Z,92026.67
2018-03-11T06:45:29.200Z,92025.86
2018-03-11T06:46:18.257Z,92028.92
2018-03-11T06:47:07.297Z,92032.38
2018-03-11T06:47:56.339Z,92025.57
2018-03-11T06:48:45.378Z,92023.48
2018-03-11T06:49:34.490Z,92020.84
2018-03-11T06:50:23.529Z,92022.84
2018-03-11T06:51:12.592Z,92019.16
2018-03-11T06:52:01.701Z,92024.30
2018-03-11T06:52:50.752Z,92024.05
2018-03-11T06:53:39.796Z,92018.67
2018-03-11T06:54:28.850Z,92022.17
2018-03-11T06:55:17.987Z,92015.16
2018-03-11T06:56:07.039Z,92017.46
2018-03-11T06:56:56.075Z,92018.47
2018-03-11T06:57:45.125Z,92019.49
2018-03-11T06:58:34.271Z,92019.23
2018-03-11T06:59:23.318Z,92018.14
2018-03-11T07:00:12.372Z,92021.07
2018-03-11T07:01:01.477Z,92029.77
2018-03-11T07:01:50.532Z,92027.95
2018-03-11T07:02:39.605Z,92030.84
2018-03-11T07:03:28.644Z,92030.70
2018-03-11T07:04:17.682Z,92026.13
2018-03-11T07:05:06.758Z,92030.78
2018-03-11T07:05:55.800Z,92029.08
2018-03-11T07:06:44.901Z,92031.00
2018-03-11T07:07:33.981Z,92026.70
2018-03-11T07:08:26.514Z,92029.53
2018-03-11T07:09:15.632Z,92029.61
2018-03-11T07:10:04.750Z,92024.53
2018-03-11T07:10:53.836Z,92012.72
2018-03-11T07:11:42.865Z,92025.70
2018-03-11T07:12:32.205Z,92025.18
2018-03-11T07:13:21.265Z,92025.47
2018-03-11T07:14:10.307Z,92018.59
2018-03-11T07:15:00.220Z,92022.78
2018-03-11T07:15:49.492Z,92015.89
2018-03-11T07:16:38.526Z,92022.33
2018-03-11T07:17:27.629Z,92020.94
2018-03-11T07:18:16.687Z,92011.55
2018-03-11T07:19:05.769Z,92024.11
2018-03-11T07:19:54.801Z,92015.84
2018-03-11T07:20:43.952Z,92023.55
2018-03-11T07:21:33.007Z,92023.02
2018-03-11T07:22:22.087Z,92021.51
2018-03-11T07:23:11.137Z,92018.84
2018-03-11T07:24:00.192Z,92014.89
2018-03-11T07:24:49.253Z,92016.42
2018-03-11T07:25:38.291Z,92014.80
2018-03-11T07:26:27.393Z,92013.44
2018-03-11T07:27:16.434Z,92013.83
2018-03-11T07:28:05.488Z,92010.94
2018-03-11T07:28:54.540Z,92007.73
2018-03-11T07:29:43.597Z,92011.70
2018-03-11T07:30:32.642Z,92010.25
2018-03-11T07:31:21.699Z,92013.30
2018-03-11T07:32:10.776Z,92005.88
2018-03-11T07:32:59.833Z,92004.08
2018-03-11T07:33:48.872Z,92010.14
2018-03-11T07:34:37.925Z,92004.78
2018-03-11T07:35:27.005Z,92006.41
2018-03-11T07:36:16.070Z,92002.06
2018-03-11T07:37:05.114Z,92007.73
2018-03-11T07:37:54.679Z,92003.81
2018-03-11T07:38:43.748Z,92004.87
2018-03-11T07:39:32.802Z,92002.09
2018-03-11T07:40:21.852Z,92004.80
2018-03-11T07:41:10.890Z,91996.19
2018-03-11T07:41:59.941Z,92003.72
2018-03-11T07:42:49.046Z,91999.38
2018-03-11T07:43:38.082Z,91999.81
2018-03-11T07:44:28.325Z,92000.02
2018-03-11T07:45:18.337Z,91996.70
2018-03-11T07:46:07.922Z,91996.81
2018-03-11T07:46:57.070Z,91999.61
2018-03-11T07:47:47.117Z,91994.31
2018-03-11T07:48:36.916Z,91999.47
2018-03-11T07:49:26.183Z,91994.83
2018-03-11T07:50:15.949Z,91999.77
2018-03-11T07:51:06.244Z,91999.41
2018-03-11T07:51:57.193Z,91998.60
2018-03-11T07:52:46.395Z,91999.77
2018-03-11T07:53:35.558Z,91997.59
2018-03-11T07:54:24.646Z,91996.69
2018-03-11T07:55:13.700Z,91996.54
2018-03-11T07:56:02.742Z,91992.64
2018-03-11T07:56:51.840Z,91990.37
2018-03-11T07:57:40.919Z,91992.80
2018-03-11T07:58:29.959Z,91981.80
2018-03-11T07:59:19.015Z,91986.06
2018-03-11T08:00:08.295Z,91981.52
2018-03-11T08:00:57.341Z,91983.88
2018-03-11T08:01:46.395Z,91986.80
2018-03-11T08:02:35.459Z,91984.41
2018-03-11T08:03:24.515Z,91980.27
2018-03-11T08:04:13.568Z,91975.16
2018-03-11T08:05:02.635Z,91981.55
2018-03-11T08:05:51.928Z,91981.55
2018-03-11T08:06:40.983Z,91983.97
2018-03-11T08:07:30.066Z,91983.31
2018-03-11T08:08:19.119Z,91978.77
2018-03-11T08:09:08.194Z,91984.88
2018-03-11T08:09:57.253Z,91978.49
2018-03-11T08:10:46.308Z,91977.96
2018-03-11T08:11:35.428Z,91979.80
2018-03-11T08:12:24.476Z,91974.23
2018-03-11T08:13:13.637Z,91969.94
2018-03-11T08:14:02.700Z,91967.98
2018-03-11T08:14:51.746Z,91971.20
2018-03-11T08:15:40.815Z,91969.66
2018-03-11T08:16:29.863Z,91967.23
2018-03-11T08:17:18.933Z,91970.00
2018-03-11T08:18:07.988Z,91968.25
2018-03-11T08:18:57.095Z,91973.20
2018-03-11T08:19:46.149Z,91966.45
2018-03-11T08:20:35.289Z,91969.86
2018-03-11T08:21:24.474Z,91971.98
2018-03-11T08:22:13.539Z,91970.20
2018-03-11T08:23:02.590Z,91973.89
2018-03-11T08:23:51.992Z,91968.23
2018-03-11T08:24:41.388Z,91969.57
2018-03-11T08:25:30.441Z,91970.48
2018-03-11T08:26:19.488Z,91968.59
2018-03-11T08:27:08.716Z,91970.91
2018-03-11T08:27:57.795Z,91966.72
2018-03-11T08:28:46.860Z,91969.19
2018-03-11T08:29:36.223Z,91974.61
2018-03-11T08:30:25.271Z,91969.10
2018-03-11T08:31:14.311Z,91971.20
2018-03-11T08:32:03.375Z,91968.86
2018-03-11T08:32:52.426Z,91971.21
2018-03-11T08:33:41.467Z,91970.64
2018-03-11T08:34:30.549Z,91968.78
2018-03-11T08:35:19.596Z,91967.33
2018-03-11T08:36:08.652Z,91964.06
2018-03-11T08:36:57.716Z,91961.64
2018-03-11T08:37:46.766Z,91963.66
2018-03-11T08:38:35.849Z,91964.52
2018-03-11T08:39:24.901Z,91959.59
2018-03-11T08:40:14.000Z,91963.06
2018-03-11T08:41:03.048Z,91962.77
2018-03-11T08:41:52.144Z,91960.86
2018-03-11T08:42:41.197Z,91958.56
2018-03-11T08:43:30.243Z,91959.01
2018-03-11T08:44:19.292Z,91959.27
2018-03-11T08:45:08.656Z,91954.15
2018-03-11T08:45:57.709Z,91948.83
2018-03-11T08:46:46.755Z,91956.83
2018-03-11T08:47:35.816Z,91951.53
2018-03-11T08:48:24.895Z,91955.80
2018-03-11T08:49:17.090Z,91954.84
2018-03-11T08:50:06.141Z,91950.97
2018-03-11T08:50:55.280Z,91954.41
2018-03-11T08:51:44.330Z,91952.33
2018-03-11T08:52:33.575Z,91956.28
2018-03-11T08:53:22.637Z,91954.54
2018-03-11T08:54:11.693Z,91958.63
2018-03-11T08:55:00.747Z,91950.31
2018-03-11T08:55:49.805Z,91954.58
2018-03-11T08:56:38.918Z,91947.33
2018-03-11T08:57:28.038Z,91947.67
2018-03-11T08:58:17.064Z,91950.78
2018-03-11T08:59:06.215Z,91947.62
2018-03-11T08:59:55.287Z,91948.11
2018-03-11T09:00:44.632Z,91951.08
2018-03-11T09:01:34.617Z,91948.20
2018-03-11T09:02:23.709Z,91949.61
2018-03-11T09:03:12.761Z,91950.63
2018-03-11T09:04:01.884Z,91949.07
2018-03-11T09:04:50.953Z,91945.94
2018-03-11T09:05:40.028Z,91948.42
2018-03-11T09:06:29.096Z,91949.55
2018-03-11T09:07:18.177Z,91950.81
2018-03-11T09:08:07.293Z,91949.75
2018-03-11T09:08:56.352Z,91943.38
2018-03-11T09:09:45.535Z,91950.17
2018-03-11T09:10:34.627Z,91944.91
2018-03-11T09:11:23.721Z,91947.73
2018-03-11T09:12:12.800Z,91949.03
2018-03-11T09:13:01.874Z,91947.73
2018-03-11T09:13:50.956Z,91946.82
2018-03-11T09:14:40.000Z,91947.42
2018-03-11T09:15:46.497Z,91950.25
2018-03-11T09:16:35.562Z,91940.45
2018-03-11T09:17:24.788Z,91943.16
2018-03-11T09:18:13.847Z,91947.16
2018-03-11T09:19:03.094Z,91949.27
2018-03-11T09:19:52.493Z,91943.75
2018-03-11T09:20:41.593Z,91943.47
2018-03-11T09:21:30.643Z,91944.41
2018-03-11T09:22:19.731Z,91944.79
2018-03-11T09:23:08.862Z,91940.02
2018-03-11T09:23:57.923Z,91942.67
2018-03-11T09:24:46.984Z,91939.00
2018-03-11T09:25:36.044Z,91941.41
2018-03-11T09:26:25.122Z,91940.00
2018-03-11T09:27:14.194Z,91942.38
2018-03-11T09:28:03.274Z,91942.77
2018-03-11T09:28:52.416Z,91943.64
2018-03-11T09:29:41.554Z,91939.47
2018-03-11T09:30:30.764Z,91942.00
2018-03-11T09:31:19.889Z,91939.38
2018-03-11T09:32:08.968Z,91934.41
2018-03-11T09:32:58.021Z,91936.20
2018-03-11T09:33:47.088Z,91931.63
2018-03-11T09:34:36.150Z,91938.82
2018-03-11T09:35:25.309Z,91936.31
2018-03-11T09:36:14.363Z,91937.70
2018-03-11T09:37:03.410Z,91941.41
2018-03-11T09:37:52.462Z,91939.64